Time;durP1;ratioP1;P1;durP2;ratioP2;P2;SDS_P1;SDS_P2;PMS_P1;PMS_P2;Temp;Humidity;BMP_temperature;BMP_pressure;BME280_temperature;BME280_humidity;BME280_pressure;Samples;Min_cycle;Max_cycle;Signal;HPM_P1;HPM_P2
2023/03/15 00:02:22;;;;;;;5.00;1.20;;;5.20;34.20;;;;;;5063227;28;20484;-70
2023/03/15 00:04:50;;;;;;;3.70;1.10;;;5.20;34.30;;;;;;5063779;28;20457;-70
2023/03/15 00:07:17;;;;;;;3.70;0.97;;;5.30;34.30;;;;;;5064723;28;20481;-70
2023/03/15 00:09:44;;;;;;;3.60;0.93;;;5.30;34.40;;;;;;5062388;28;20465;-70
2023/03/15 00:12:11;;;;;;;4.13;1.30;;;5.30;34.50;;;;;;5066207;28;20463;-71
2023/03/15 00:14:37;;;;;;;4.10;1.10;;;5.30;34.30;;;;;;5063737;28;20457;-70
2023/03/15 00:17:04;;;;;;;5.00;1.07;;;5.30;34.40;;;;;;5063147;28;20492;-70
2023/03/15 00:19:32;;;;;;;4.10;0.90;;;5.30;34.30;;;;;;5063892;28;20461;-70
2023/03/15 00:21:59;;;;;;;4.03;1.30;;;5.30;34.50;;;;;;5062291;28;20461;-70
2023/03/15 00:24:26;;;;;;;4.60;1.60;;;5.30;34.50;;;;;;5063264;28;20547;-71
2023/03/15 00:26:52;;;;;;;3.83;0.90;;;5.30;34.40;;;;;;5066043;28;20477;-71
2023/03/15 00:29:20;;;;;;;4.10;1.17;;;5.40;34.50;;;;;;5066571;28;20998;-70
2023/03/15 00:31:47;;;;;;;6.63;1.80;;;5.30;34.50;;;;;;5058846;28;21043;-70
2023/03/15 00:34:14;;;;;;;4.53;1.67;;;5.30;34.70;;;;;;5057196;28;20464;-70
2023/03/15 00:36:42;;;;;;;4.50;1.57;;;5.30;34.80;;;;;;5060296;28;20504;-70
2023/03/15 00:39:09;;;;;;;4.43;1.23;;;5.30;34.90;;;;;;5060976;28;20466;-70
2023/03/15 00:41:37;;;;;;;4.83;1.67;;;5.30;34.90;;;;;;5062520;28;20485;-70
2023/03/15 00:44:04;;;;;;;4.10;1.37;;;5.40;35.10;;;;;;5060888;28;20468;-70
2023/03/15 00:46:30;;;;;;;3.70;1.10;;;5.40;35.30;;;;;;5058896;28;20482;-71
2023/03/15 00:48:57;;;;;;;4.23;1.47;;;5.40;35.50;;;;;;5057977;28;20461;-70
2023/03/15 00:51:24;;;;;;;3.60;0.80;;;5.40;35.70;;;;;;5061450;28;20449;-70
2023/03/15 00:53:53;;;;;;;3.87;1.03;;;5.40;34.80;;;;;;5055750;28;20458;-70
2023/03/15 00:56:22;;;;;;;3.70;0.80;;;5.40;34.20;;;;;;5060731;28;20492;-70
2023/03/15 00:58:49;;;;;;;3.97;0.80;;;5.40;33.70;;;;;;5063877;28;20484;-70
2023/03/15 01:01:18;;;;;;;4.97;0.90;;;5.40;33.40;;;;;;5064061;28;20481;-70
2023/03/15 01:03:45;;;;;;;3.70;0.80;;;5.30;32.80;;;;;;5062192;28;20460;-70
2023/03/15 01:06:13;;;;;;;3.40;0.60;;;5.30;32.70;;;;;;5064120;28;20481;-70
2023/03/15 01:08:40;;;;;;;3.60;0.70;;;5.30;32.40;;;;;;5059354;28;20846;-70
2023/03/15 01:11:11;;;;;;;3.70;0.97;;;5.20;32.00;;;;;;5062469;28;20454;-70
2023/03/15 01:13:38;;;;;;;4.20;0.83;;;5.20;32.00;;;;;;5062949;28;20472;-70
2023/03/15 01:16:06;;;;;;;4.50;0.87;;;5.10;32.00;;;;;;5061742;28;20476;-70
2023/03/15 01:18:33;;;;;;;3.90;1.07;;;5.10;31.90;;;;;;5064959;28;21033;-70
2023/03/15 01:21:00;;;;;;;4.73;1.27;;;5.10;32.00;;;;;;5052923;28;20512;-69
2023/03/15 01:23:26;;;;;;;4.27;1.50;;;5.00;32.20;;;;;;5062019;28;20467;-70
2023/03/15 01:25:53;;;;;;;4.10;1.67;;;5.00;32.40;;;;;;5055593;28;20563;-70
2023/03/15 01:28:21;;;;;;;5.10;2.17;;;4.90;32.30;;;;;;5060867;28;20453;-70
2023/03/15 01:30:52;;;;;;;7.23;3.73;;;4.90;32.40;;;;;;5061194;28;20477;-70
2023/03/15 01:33:19;;;;;;;7.20;4.30;;;4.80;32.40;;;;;;5061844;28;20454;-70
2023/03/15 01:35:45;;;;;;;7.00;4.60;;;4.80;32.70;;;;;;5069559;28;20479;-70
2023/03/15 01:38:13;;;;;;;6.87;3.67;;;4.70;33.00;;;;;;5059467;28;20485;-70
2023/03/15 01:40:43;;;;;;;6.53;3.90;;;4.70;33.20;;;;;;5069312;28;20472;-70
2023/03/15 01:43:16;;;;;;;4.50;1.90;;;4.70;33.60;;;;;;5063142;28;20452;-70
2023/03/15 01:46:17;;;;;;;4.40;1.83;;;4.60;33.50;;;;;;5063938;28;20481;-70
2023/03/15 01:48:49;;;;;;;4.70;2.30;;;4.60;33.70;;;;;;5065937;28;20464;-70
2023/03/15 01:51:21;;;;;;;4.53;1.77;;;4.50;33.90;;;;;;5066105;28;20465;-70
2023/03/15 01:53:52;;;;;;;4.43;1.67;;;4.50;34.10;;;;;;5062850;28;21147;-71
2023/03/15 01:56:19;;;;;;;3.80;1.23;;;4.50;34.20;;;;;;5065726;28;20483;-70
2023/03/15 01:58:47;;;;;;;4.63;1.40;;;4.50;34.20;;;;;;5059663;28;20481;-69
2023/03/15 02:01:16;;;;;;;4.03;1.30;;;4.40;34.60;;;;;;5063632;28;20476;-70
2023/03/15 02:03:46;;;;;;;5.90;1.50;;;4.40;34.40;;;;;;5061971;28;20461;-70
2023/03/15 02:06:17;;;;;;;5.37;1.83;;;4.40;34.60;;;;;;5066886;28;20996;-70
2023/03/15 02:08:47;;;;;;;5.50;2.50;;;4.30;34.80;;;;;;5063681;28;20445;-70
2023/03/15 02:11:17;;;;;;;4.70;1.77;;;4.30;35.00;;;;;;5064038;28;20457;-70
2023/03/15 02:13:46;;;;;;;5.60;2.03;;;4.40;34.80;;;;;;5062843;28;20464;-70
2023/03/15 02:16:13;;;;;;;6.20;2.33;;;4.30;34.40;;;;;;5064412;28;22893;-70
2023/03/15 02:18:41;;;;;;;6.43;1.97;;;4.30;34.20;;;;;;5066484;28;20481;-70
2023/03/15 02:21:18;;;;;;;4.97;1.60;;;4.30;34.20;;;;;;5068227;28;20969;-71
2023/03/15 02:23:50;;;;;;;4.27;1.40;;;4.20;34.10;;;;;;5063340;28;20464;-70
2023/03/15 02:26:23;;;;;;;4.10;1.50;;;4.20;34.20;;;;;;5059166;28;20871;-70
2023/03/15 02:28:53;;;;;;;6.33;2.27;;;4.20;33.80;;;;;;5061871;28;20466;-70
2023/03/15 02:31:20;;;;;;;7.30;1.27;;;4.20;33.40;;;;;;5065314;28;21053;-70
2023/03/15 02:33:50;;;;;;;8.00;1.90;;;4.20;32.50;;;;;;5065083;28;20494;-70
2023/03/15 02:36:20;;;;;;;4.80;1.60;;;4.20;32.10;;;;;;5066099;28;20484;-70
2023/03/15 02:38:47;;;;;;;4.80;1.60;;;4.20;31.80;;;;;;5065124;28;20488;-70
2023/03/15 02:41:18;;;;;;;5.53;1.87;;;4.10;31.60;;;;;;5067076;28;20461;-70
2023/03/15 02:43:47;;;;;;;5.80;1.70;;;4.10;31.60;;;;;;5062702;28;20461;-70
2023/03/15 02:46:15;;;;;;;4.30;1.60;;;4.10;31.60;;;;;;5065402;28;20476;-70
2023/03/15 02:48:43;;;;;;;4.90;1.70;;;4.00;31.20;;;;;;5064479;28;20465;-70
2023/03/15 02:51:19;;;;;;;5.83;1.97;;;4.00;31.60;;;;;;5066015;28;20457;-70
2023/03/15 02:53:46;;;;;;;8.33;2.00;;;4.00;31.60;;;;;;5066575;28;20479;-70
2023/03/15 02:56:13;;;;;;;8.50;4.20;;;3.90;31.90;;;;;;5064179;28;20481;-71
2023/03/15 02:58:40;;;;;;;9.73;5.03;;;3.90;32.10;;;;;;5065843;28;20938;-70
2023/03/15 03:01:08;;;;;;;9.43;5.13;;;3.90;32.30;;;;;;5067535;28;20996;-70
2023/03/15 03:03:36;;;;;;;8.87;5.23;;;3.90;32.40;;;;;;5065148;28;20949;-71
2023/03/15 03:06:03;;;;;;;8.07;4.40;;;3.90;32.40;;;;;;5065028;28;20490;-70
2023/03/15 03:08:30;;;;;;;9.40;3.37;;;3.90;32.50;;;;;;5063402;28;20453;-70
2023/03/15 03:10:57;;;;;;;5.80;2.80;;;4.00;32.60;;;;;;5066679;28;20462;-70
2023/03/15 03:13:23;;;;;;;4.83;1.93;;;4.00;32.70;;;;;;5068429;28;20880;-70
2023/03/15 03:15:57;;;;;;;5.50;2.23;;;4.10;32.60;;;;;;5065853;28;20509;-70
2023/03/15 03:18:24;;;;;;;5.50;2.40;;;4.10;32.80;;;;;;5061324;28;20527;-70
2023/03/15 03:20:55;;;;;;;5.20;2.27;;;4.20;32.70;;;;;;5061892;28;20464;-70
2023/03/15 03:23:24;;;;;;;5.20;2.53;;;4.20;32.50;;;;;;5066725;28;20469;-71
2023/03/15 03:25:51;;;;;;;6.30;3.03;;;4.20;32.70;;;;;;5063224;28;20476;-70
2023/03/15 03:28:18;;;;;;;6.83;3.10;;;4.30;32.70;;;;;;5063154;28;20451;-70
2023/03/15 03:30:44;;;;;;;7.60;2.83;;;4.30;32.90;;;;;;5063564;28;20485;-70
2023/03/15 03:33:11;;;;;;;6.90;2.67;;;4.30;32.90;;;;;;5062062;28;20473;-70
2023/03/15 03:35:38;;;;;;;6.57;3.40;;;4.30;33.30;;;;;;5067146;28;20530;-70
2023/03/15 03:38:06;;;;;;;7.70;2.50;;;4.40;33.50;;;;;;5058307;28;20484;-70
2023/03/15 03:40:32;;;;;;;6.63;3.03;;;4.40;33.60;;;;;;5066215;28;20480;-70
2023/03/15 03:42:59;;;;;;;10.33;3.63;;;4.40;33.30;;;;;;5064107;28;20471;-70
2023/03/15 03:45:26;;;;;;;7.70;3.90;;;4.40;32.90;;;;;;5064679;28;20453;-70
2023/03/15 03:47:53;;;;;;;9.70;4.00;;;4.40;32.50;;;;;;5066296;28;20469;-71
2023/03/15 03:50:19;;;;;;;8.47;4.13;;;4.40;32.30;;;;;;5062676;28;20457;-71
2023/03/15 03:52:46;;;;;;;9.60;3.97;;;4.40;32.30;;;;;;5062124;28;20591;-71
2023/03/15 03:55:15;;;;;;;15.93;4.93;;;4.40;32.10;;;;;;5065521;28;20475;-71
2023/03/15 03:57:41;;;;;;;9.43;4.63;;;4.50;32.00;;;;;;5057826;28;21020;-71
2023/03/15 04:00:13;;;;;;;9.50;5.17;;;4.40;31.70;;;;;;5063128;28;20988;-70
2023/03/15 04:02:41;;;;;;;9.13;5.63;;;4.40;31.50;;;;;;5065990;28;20468;-71
2023/03/15 04:05:08;;;;;;;15.87;5.57;;;4.40;31.20;;;;;;5062342;28;20465;-70
2023/03/15 04:07:35;;;;;;;9.47;5.50;;;4.40;31.30;;;;;;5065867;28;20469;-71
2023/03/15 04:10:02;;;;;;;11.57;5.77;;;4.30;31.10;;;;;;5063478;28;20812;-70
2023/03/15 04:12:30;;;;;;;8.57;5.97;;;4.30;30.90;;;;;;5058919;28;20977;-70
2023/03/15 04:14:57;;;;;;;12.07;7.00;;;4.20;30.80;;;;;;5063286;28;20457;-71
2023/03/15 04:17:23;;;;;;;13.67;6.93;;;4.20;30.70;;;;;;5055116;28;21019;-70
2023/03/15 04:19:50;;;;;;;12.57;7.07;;;4.20;30.60;;;;;;5061381;28;20504;-70
2023/03/15 04:22:17;;;;;;;15.77;6.93;;;4.20;30.40;;;;;;5064261;28;20457;-70
2023/03/15 04:24:43;;;;;;;11.90;7.03;;;4.10;30.40;;;;;;5063388;28;20453;-70
2023/03/15 04:27:13;;;;;;;10.87;6.73;;;4.10;30.50;;;;;;5060701;28;20485;-70
2023/03/15 04:29:42;;;;;;;14.90;6.90;;;4.10;30.60;;;;;;5062068;28;20493;-71
2023/03/15 04:32:09;;;;;;;12.10;5.90;;;4.10;30.50;;;;;;5055168;28;20492;-70
2023/03/15 04:34:37;;;;;;;14.13;6.60;;;4.00;30.40;;;;;;5065233;28;20937;-70
2023/03/15 04:37:05;;;;;;;13.00;6.17;;;4.00;30.40;;;;;;5061741;28;20491;-70
2023/03/15 04:39:32;;;;;;;12.30;6.30;;;4.10;30.40;;;;;;5062897;28;20968;-70
2023/03/15 04:41:58;;;;;;;13.57;5.83;;;4.00;29.70;;;;;;5060389;28;20454;-70
2023/03/15 04:44:26;;;;;;;11.60;5.97;;;4.10;29.80;;;;;;5063476;28;20469;-70
2023/03/15 04:46:54;;;;;;;11.00;4.73;;;4.00;29.80;;;;;;5062994;28;20491;-69
2023/03/15 04:49:21;;;;;;;14.90;8.57;;;4.10;29.70;;;;;;5062752;28;20504;-70
2023/03/15 04:51:47;;;;;;;9.40;5.57;;;4.10;29.60;;;;;;5063096;28;20462;-70
2023/03/15 04:54:14;;;;;;;13.23;5.43;;;4.20;29.40;;;;;;5064290;28;20457;-71
2023/03/15 04:56:41;;;;;;;11.30;6.13;;;4.20;29.40;;;;;;5062610;28;20485;-71
2023/03/15 04:59:09;;;;;;;11.07;4.47;;;4.20;29.30;;;;;;5058775;28;20568;-71
2023/03/15 05:01:36;;;;;;;11.03;5.93;;;4.20;29.30;;;;;;5060710;28;20481;-71
2023/03/15 05:04:04;;;;;;;9.60;4.77;;;4.20;29.20;;;;;;5062070;28;20454;-71
2023/03/15 05:06:31;;;;;;;17.90;5.73;;;4.20;29.20;;;;;;5068916;28;21030;-71
2023/03/15 05:08:58;;;;;;;11.77;3.97;;;4.20;29.00;;;;;;5069731;28;20449;-71
2023/03/15 05:11:25;;;;;;;9.63;3.50;;;4.30;28.30;;;;;;5069154;28;20461;-71
2023/03/15 05:13:52;;;;;;;11.70;3.80;;;4.30;28.30;;;;;;5062263;28;20467;-71
2023/03/15 05:16:18;;;;;;;12.70;3.73;;;4.30;28.00;;;;;;5066292;28;20481;-71
2023/03/15 05:18:45;;;;;;;10.60;3.40;;;4.30;27.70;;;;;;5065345;28;20981;-71
2023/03/15 05:21:13;;;;;;;11.73;3.60;;;4.20;27.50;;;;;;5061768;28;20465;-71
2023/03/15 05:23:40;;;;;;;9.13;3.77;;;4.20;26.10;;;;;;5067338;28;21208;-71
2023/03/15 05:26:07;;;;;;;8.20;3.60;;;4.20;25.40;;;;;;5063599;28;20508;-71
2023/03/15 05:28:34;;;;;;;10.90;3.87;;;4.20;25.40;;;;;;5065276;28;20944;-70
2023/03/15 05:31:02;;;;;;;12.20;3.27;;;4.10;25.70;;;;;;5066833;28;20476;-70
2023/03/15 05:33:29;;;;;;;10.67;4.00;;;4.10;26.00;;;;;;5066688;28;20484;-70
2023/03/15 05:35:55;;;;;;;10.10;3.40;;;4.10;25.70;;;;;;5069281;28;20469;-70
2023/03/15 05:38:25;;;;;;;14.40;4.00;;;4.00;25.10;;;;;;5064875;28;20469;-71
2023/03/15 05:40:52;;;;;;;10.93;3.90;;;4.00;24.50;;;;;;5063567;28;20457;-70
2023/03/15 05:43:19;;;;;;;12.90;3.10;;;4.10;24.70;;;;;;5064092;28;20475;-71
2023/03/15 05:45:47;;;;;;;14.10;4.70;;;4.10;24.80;;;;;;5067987;28;20480;-70
2023/03/15 05:48:14;;;;;;;13.73;3.30;;;4.00;24.60;;;;;;5060806;28;21038;-71
2023/03/15 05:50:41;;;;;;;7.40;3.07;;;4.00;24.70;;;;;;5067254;28;20453;-71
2023/03/15 05:53:07;;;;;;;11.00;3.23;;;3.90;25.00;;;;;;5061677;28;20453;-70
2023/03/15 05:55:36;;;;;;;12.70;3.57;;;3.80;25.40;;;;;;5068372;28;20848;-70
2023/03/15 05:58:02;;;;;;;8.80;3.30;;;3.80;25.70;;;;;;5059397;28;20468;-70
2023/03/15 06:00:29;;;;;;;6.90;3.50;;;3.80;25.90;;;;;;5065681;28;20853;-70
2023/03/15 06:02:56;;;;;;;8.87;3.20;;;3.90;26.40;;;;;;5065634;28;20463;-71
2023/03/15 06:05:22;;;;;;;15.33;3.40;;;4.00;26.50;;;;;;5061153;28;20453;-71
2023/03/15 06:07:49;;;;;;;11.53;3.37;;;4.00;26.50;;;;;;5066263;28;20457;-70
2023/03/15 06:10:16;;;;;;;6.73;2.53;;;4.10;26.40;;;;;;5068310;28;20467;-71
2023/03/15 06:12:44;;;;;;;8.47;2.70;;;4.20;26.10;;;;;;5066252;28;20465;-70
2023/03/15 06:15:11;;;;;;;7.80;3.10;;;4.20;25.70;;;;;;5069280;28;20461;-70
2023/03/15 06:17:38;;;;;;;10.50;3.67;;;4.50;25.30;;;;;;5064657;28;20510;-70
2023/03/15 06:20:06;;;;;;;13.23;3.37;;;5.10;24.00;;;;;;5061330;28;20469;-71
2023/03/15 06:22:32;;;;;;;9.40;2.90;;;5.20;22.80;;;;;;5062528;28;20461;-71
2023/03/15 06:24:59;;;;;;;7.50;2.50;;;5.20;23.00;;;;;;5069011;28;20461;-71
2023/03/15 06:27:26;;;;;;;10.00;2.80;;;5.70;22.60;;;;;;5063584;28;20477;-70
2023/03/15 06:29:55;;;;;;;11.90;3.40;;;6.10;20.50;;;;;;5066799;28;20457;-70
2023/03/15 06:32:21;;;;;;;11.90;2.50;;;6.10;20.20;;;;;;5066490;28;21071;-71
2023/03/15 06:34:48;;;;;;;5.80;2.23;;;6.00;19.90;;;;;;5067191;28;20459;-70
2023/03/15 06:37:15;;;;;;;6.30;2.37;;;5.90;19.70;;;;;;5066156;28;20483;-71
2023/03/15 06:39:43;;;;;;;11.90;2.60;;;5.80;19.70;;;;;;5059676;28;21097;-71
2023/03/15 06:42:11;;;;;;;9.20;2.63;;;5.90;20.40;;;;;;5062301;28;20487;-71
2023/03/15 06:44:38;;;;;;;9.80;3.00;;;6.20;20.30;;;;;;5055477;28;20472;-71
2023/03/15 06:47:07;;;;;;;7.13;2.17;;;6.60;20.00;;;;;;5061609;28;20496;-71
2023/03/15 06:49:34;;;;;;;9.73;2.97;;;6.90;19.10;;;;;;5062992;28;20465;-71
2023/03/15 06:52:01;;;;;;;6.33;2.00;;;7.30;17.90;;;;;;5059290;28;20457;-72
2023/03/15 06:54:27;;;;;;;9.47;3.20;;;7.50;17.50;;;;;;5077864;22;20496;-71
2023/03/15 06:56:54;;;;;;;9.50;2.60;;;7.80;16.60;;;;;;5098316;28;20833;-71
2023/03/15 06:59:21;;;;;;;7.50;2.30;;;8.10;16.00;;;;;;5102320;28;20483;-71
2023/03/15 07:01:47;;;;;;;5.90;2.30;;;8.60;14.90;;;;;;5101451;28;20479;-71
2023/03/15 07:04:16;;;;;;;7.17;2.50;;;8.90;14.00;;;;;;5086032;28;20497;-71
2023/03/15 07:06:43;;;;;;;11.73;2.83;;;9.20;13.50;;;;;;5082573;28;20468;-70
2023/03/15 07:09:09;;;;;;;8.50;2.40;;;9.50;12.80;;;;;;5082958;28;20487;-71
2023/03/15 07:11:36;;;;;;;10.17;2.83;;;9.80;11.90;;;;;;5074174;28;20905;-67
2023/03/15 07:14:03;;;;;;;7.80;2.10;;;10.10;11.40;;;;;;5077407;28;20491;-68
2023/03/15 07:16:29;;;;;;;7.67;3.03;;;10.60;10.80;;;;;;5082799;28;20456;-66
2023/03/15 07:18:58;;;;;;;8.20;2.73;;;11.50;9.60;;;;;;5082464;28;20460;-67
2023/03/15 07:21:28;;;;;;;8.93;3.13;;;12.60;7.50;;;;;;5080947;28;20464;-66
2023/03/15 07:23:55;;;;;;;7.80;2.60;;;13.70;5.70;;;;;;5080250;28;20531;-66
2023/03/15 07:26:22;;;;;;;7.87;2.40;;;14.80;3.80;;;;;;5080659;28;20461;-67
2023/03/15 07:28:48;;;;;;;7.93;2.87;;;15.90;1.90;;;;;;5082072;28;20457;-67
2023/03/15 07:31:16;;;;;;;7.80;2.23;;;16.90;1.00;;;;;;5082128;28;20483;-66
2023/03/15 07:33:43;;;;;;;7.80;2.30;;;17.90;1.00;;;;;;5080561;28;20495;-66
2023/03/15 07:36:10;;;;;;;6.20;2.20;;;18.80;1.00;;;;;;5078863;28;20476;-67
2023/03/15 07:38:38;;;;;;;9.43;2.23;;;19.80;1.00;;;;;;5078651;28;20461;-67
2023/03/15 07:41:06;;;;;;;7.40;1.93;;;20.70;1.00;;;;;;5081378;28;20472;-67
2023/03/15 07:43:33;;;;;;;9.17;2.40;;;21.50;1.00;;;;;;5082163;28;20484;-67
2023/03/15 07:46:01;;;;;;;9.07;2.80;;;22.40;1.00;;;;;;5082595;28;20456;-67
2023/03/15 07:48:29;;;;;;;9.37;3.10;;;23.40;1.00;;;;;;5080983;28;20456;-67
2023/03/15 07:50:56;;;;;;;5.50;2.17;;;24.10;1.00;;;;;;5082147;28;20854;-67
2023/03/15 07:53:22;;;;;;;5.73;2.00;;;24.60;1.00;;;;;;5080256;28;20495;-67
2023/03/15 07:55:51;;;;;;;5.63;2.47;;;25.10;1.00;;;;;;5075344;28;20452;-67
2023/03/15 07:58:17;;;;;;;5.97;2.77;;;25.70;1.00;;;;;;5080726;28;20463;-67
2023/03/15 08:00:44;;;;;;;8.17;2.30;;;26.10;1.00;;;;;;5077020;28;20931;-67
2023/03/15 08:03:11;;;;;;;6.57;2.10;;;26.60;1.00;;;;;;5076509;28;20483;-67
2023/03/15 08:05:38;;;;;;;5.50;2.00;;;27.20;1.00;;;;;;5081075;28;20471;-67
2023/03/15 08:08:06;;;;;;;6.37;1.93;;;27.70;1.00;;;;;;5082827;28;20464;-67
2023/03/15 08:10:32;;;;;;;6.40;1.87;;;28.30;1.00;;;;;;5083235;28;20453;-67
2023/03/15 08:13:00;;;;;;;6.20;2.40;;;28.60;1.00;;;;;;5078389;28;20492;-67
2023/03/15 08:15:27;;;;;;;5.60;2.07;;;29.20;1.00;;;;;;5081860;28;20465;-67
2023/03/15 08:17:54;;;;;;;6.33;1.97;;;29.80;1.00;;;;;;5082699;28;20452;-68
2023/03/15 08:20:21;;;;;;;8.33;2.17;;;30.50;1.00;;;;;;5069348;28;20476;-67
2023/03/15 08:22:48;;;;;;;7.10;1.83;;;31.10;1.00;;;;;;5074442;28;20572;-68
2023/03/15 08:25:18;;;;;;;8.93;2.13;;;31.80;1.00;;;;;;5075951;28;20478;-68
2023/03/15 08:27:45;;;;;;;5.53;2.07;;;32.20;1.00;;;;;;5072018;28;20463;-73
2023/03/15 08:30:17;;;;;;;7.40;2.07;;;30.20;1.00;;;;;;5069278;28;20475;-71
2023/03/15 08:32:46;;;;;;;6.60;1.90;;;29.90;1.00;;;;;;5076533;28;20471;-73
2023/03/15 08:35:14;;;;;;;6.00;1.90;;;30.30;1.00;;;;;;5077282;28;20452;-74
2023/03/15 08:37:45;;;;;;;7.43;2.07;;;30.10;1.00;;;;;;5075378;28;20483;-70
2023/03/15 08:40:13;;;;;;;6.57;2.40;;;30.50;1.00;;;;;;5074140;28;20484;-67
2023/03/15 08:42:40;;;;;;;7.70;1.93;;;31.10;1.00;;;;;;5077549;28;20460;-74
2023/03/15 08:45:08;;;;;;;5.93;2.43;;;31.70;1.00;;;;;;5080846;28;20472;-67
2023/03/15 08:47:37;;;;;;;5.90;1.77;;;31.80;1.00;;;;;;5069444;28;20452;-68
2023/03/15 08:50:05;;;;;;;6.60;2.40;;;31.40;1.00;;;;;;5083005;28;20539;-73
2023/03/15 08:52:33;;;;;;;7.30;1.93;;;31.10;1.00;;;;;;5071655;28;20487;-70
2023/03/15 08:54:59;;;;;;;6.50;1.93;;;30.70;1.00;;;;;;5072563;28;20491;-69
2023/03/15 08:57:27;;;;;;;6.83;2.30;;;29.90;1.00;;;;;;5074122;28;23668;-68
2023/03/15 08:59:54;;;;;;;7.07;2.30;;;30.40;1.00;;;;;;5076721;28;20630;-64
2023/03/15 09:02:22;;;;;;;6.00;2.13;;;31.00;1.00;;;;;;5083192;28;20475;-70
2023/03/15 09:04:50;;;;;;;7.17;2.27;;;31.20;1.00;;;;;;5078843;28;20484;-69
2023/03/15 09:07:17;;;;;;;6.17;1.90;;;31.30;1.00;;;;;;5078436;28;20452;-63
2023/03/15 09:09:46;;;;;;;5.40;1.60;;;31.60;1.00;;;;;;5077730;28;20453;-69
2023/03/15 09:12:14;;;;;;;7.50;2.03;;;32.00;1.00;;;;;;5084170;28;20495;-68
2023/03/15 09:14:41;;;;;;;10.03;2.40;;;32.70;1.00;;;;;;5078288;28;20486;-69
2023/03/15 09:17:08;;;;;;;6.27;1.80;;;33.30;1.00;;;;;;5074021;28;20465;-69
2023/03/15 09:19:34;;;;;;;6.13;2.13;;;33.70;1.00;;;;;;5078163;28;20984;-69
2023/03/15 09:22:03;;;;;;;5.90;2.00;;;34.20;1.00;;;;;;5082556;28;20467;-69
2023/03/15 09:24:30;;;;;;;6.47;2.20;;;34.80;1.00;;;;;;5074490;28;21065;-68
2023/03/15 09:26:57;;;;;;;5.67;1.63;;;35.00;1.00;;;;;;5082867;28;20460;-68
2023/03/15 09:29:24;;;;;;;6.00;2.00;;;35.20;1.00;;;;;;5076365;28;20463;-68
2023/03/15 09:31:50;;;;;;;6.97;2.20;;;35.30;1.00;;;;;;5072150;28;20481;-68
2023/03/15 09:34:17;;;;;;;7.10;1.77;;;35.40;1.00;;;;;;5079996;28;20491;-67
2023/03/15 09:36:44;;;;;;;9.23;2.07;;;35.60;1.00;;;;;;5071253;28;20467;-67
2023/03/15 09:39:12;;;;;;;6.50;1.80;;;35.80;1.00;;;;;;5073404;28;20703;-71
2023/03/15 09:41:43;;;;;;;8.37;1.60;;;35.60;1.00;;;;;;5079196;28;20471;-68
2023/03/15 09:44:23;;;;;;;5.30;1.63;;;35.70;1.00;;;;;;5079428;28;20480;-68
2023/03/15 09:47:03;;;;;;;5.00;1.63;;;35.70;1.00;;;;;;5070332;28;20457;-68
2023/03/15 09:49:37;;;;;;;6.43;2.10;;;35.90;1.00;;;;;;5075924;28;20542;-69
2023/03/15 09:52:13;;;;;;;5.53;1.97;;;36.10;1.00;;;;;;5067852;28;21128;-68
2023/03/15 09:54:46;;;;;;;5.20;1.40;;;36.00;1.00;;;;;;5086334;28;20491;-67
2023/03/15 09:57:18;;;;;;;5.20;1.30;;;35.90;1.00;;;;;;5078726;28;20460;-68
2023/03/15 09:59:48;;;;;;;5.57;1.70;;;36.00;1.00;;;;;;5080146;28;20468;-67
2023/03/15 10:02:23;;;;;;;5.57;1.73;;;36.00;1.00;;;;;;5080514;28;20479;-68
2023/03/15 10:04:55;;;;;;;6.10;1.63;;;35.20;1.00;;;;;;5081383;28;20468;-68
2023/03/15 10:07:22;;;;;;;5.93;1.97;;;34.40;1.00;;;;;;5082488;28;20901;-68
2023/03/15 10:09:50;;;;;;;7.07;1.83;;;34.30;1.00;;;;;;5081399;28;20467;-69
2023/03/15 10:12:23;;;;;;;5.50;1.57;;;34.70;1.00;;;;;;5080081;28;20488;-70
2023/03/15 10:15:16;;;;;;;6.00;1.47;;;35.00;1.00;;;;;;5077091;28;20483;-68
2023/03/15 10:17:50;;;;;;;4.43;1.30;;;35.60;1.00;;;;;;5079014;28;21135;-68
2023/03/15 10:20:21;;;;;;;4.63;1.10;;;35.40;1.00;;;;;;5083174;28;20475;-69
2023/03/15 10:22:54;;;;;;;4.60;1.63;;;34.80;1.00;;;;;;5077689;28;20857;-68
2023/03/15 10:25:25;;;;;;;4.30;1.20;;;32.90;1.00;;;;;;5083525;28;20452;-68
2023/03/15 10:27:56;;;;;;;4.80;1.30;;;31.60;1.00;;;;;;5083706;28;20475;-69
2023/03/15 10:30:24;;;;;;;7.00;1.30;;;31.80;1.00;;;;;;5083373;28;20463;-69
2023/03/15 10:32:55;;;;;;;5.60;1.53;;;29.60;1.00;;;;;;5075712;28;20479;-69
2023/03/15 10:35:22;;;;;;;5.63;1.40;;;28.20;1.00;;;;;;5087768;28;20543;-69
2023/03/15 10:37:49;;;;;;;5.57;1.30;;;28.70;1.00;;;;;;5083588;28;20884;-74
2023/03/15 10:40:37;;;;;;;7.37;1.80;;;29.00;1.00;;;;;;5074973;28;20480;-76
2023/03/15 10:43:13;;;;;;;7.10;1.60;;;27.60;1.00;;;;;;5083049;28;20475;-67
2023/03/15 10:45:40;;;;;;;4.80;1.30;;;26.40;1.00;;;;;;5078928;28;20468;-68
2023/03/15 10:48:08;;;;;;;4.60;1.20;;;25.50;1.00;;;;;;5082319;28;20460;-70
2023/03/15 10:50:38;;;;;;;3.80;1.10;;;26.10;1.00;;;;;;5083908;28;20453;-68
2023/03/15 10:53:10;;;;;;;4.50;1.30;;;25.60;1.00;;;;;;5077240;28;20698;-69
2023/03/15 10:55:42;;;;;;;4.47;1.20;;;24.70;1.00;;;;;;5081128;28;20493;-70
2023/03/15 10:58:27;;;;;;;4.73;1.20;;;23.90;1.00;;;;;;5079540;28;20460;-69
2023/03/15 11:00:59;;;;;;;5.10;1.23;;;22.50;1.00;;;;;;5080447;28;20508;-69
2023/03/15 11:03:27;;;;;;;4.70;1.10;;;21.60;1.00;;;;;;5076546;28;20488;-70
2023/03/15 11:05:56;;;;;;;4.70;1.67;;;20.90;1.00;;;;;;5083415;28;20464;-65
2023/03/15 11:08:25;;;;;;;4.30;1.20;;;20.20;1.00;;;;;;5076172;28;20472;-70
2023/03/15 11:10:57;;;;;;;4.40;1.20;;;19.60;1.00;;;;;;5077945;28;21243;-69
2023/03/15 11:13:27;;;;;;;4.77;1.50;;;19.10;1.00;;;;;;5077270;28;20508;-68
2023/03/15 11:16:02;;;;;;;5.53;1.50;;;18.80;1.00;;;;;;5071676;28;20463;-67
2023/03/15 11:18:32;;;;;;;4.20;1.30;;;18.50;1.00;;;;;;5080190;28;20495;-69
2023/03/15 11:21:01;;;;;;;3.83;1.07;;;18.60;1.00;;;;;;5071997;28;20480;-67
2023/03/15 11:23:31;;;;;;;4.40;0.90;;;18.90;1.00;;;;;;5075895;28;20476;-63
2023/03/15 11:25:58;;;;;;;5.40;1.37;;;19.10;1.00;;;;;;5072874;28;20583;-67
2023/03/15 11:28:28;;;;;;;5.10;1.20;;;19.20;1.00;;;;;;5082371;28;20467;-68
2023/03/15 11:30:58;;;;;;;9.43;1.40;;;18.90;1.00;;;;;;5081602;28;20476;-69
2023/03/15 11:33:34;;;;;;;4.30;1.20;;;18.70;1.00;;;;;;5081725;28;20480;-67
2023/03/15 11:36:05;;;;;;;5.07;1.20;;;18.20;1.00;;;;;;5077755;28;20644;-68
2023/03/15 11:38:35;;;;;;;4.00;1.10;;;17.70;1.00;;;;;;5082668;28;20491;-69
2023/03/15 11:41:10;;;;;;;4.43;1.27;;;17.20;1.00;;;;;;5072778;28;20480;-70
2023/03/15 11:43:47;;;;;;;5.30;1.30;;;17.00;1.00;;;;;;5080207;28;20479;-63
2023/03/15 11:46:22;;;;;;;5.03;1.03;;;16.80;1.00;;;;;;5084587;28;20452;-71
2023/03/15 11:48:53;;;;;;;6.43;1.00;;;16.60;1.00;;;;;;5074705;28;20460;-69
2023/03/15 11:51:20;;;;;;;4.30;1.23;;;16.50;1.00;;;;;;5081584;28;20463;-69
2023/03/15 11:53:52;;;;;;;3.67;1.10;;;16.70;1.00;;;;;;5079855;28;20497;-63
2023/03/15 11:56:24;;;;;;;3.60;0.80;;;16.70;1.00;;;;;;5076168;28;20471;-67
2023/03/15 11:59:07;;;;;;;5.30;1.20;;;16.60;1.00;;;;;;5070334;28;20548;-67
2023/03/15 12:06:44;;;;;;;4.90;1.00;;;16.40;1.00;;;;;;5282185;22;20488;-68
2023/03/15 12:09:39;;;;;;;6.00;1.40;;;16.40;1.00;;;;;;5042933;28;20461;-68
2023/03/15 12:12:34;;;;;;;5.87;1.10;;;16.60;1.00;;;;;;5042456;28;20994;-66
2023/03/15 12:15:05;;;;;;;4.00;1.07;;;16.90;1.00;;;;;;5042313;28;20466;-65
2023/03/15 12:17:43;;;;;;;4.70;1.30;;;16.80;1.00;;;;;;5041671;28;20485;-65
2023/03/15 12:20:21;;;;;;;5.60;2.07;;;16.50;1.00;;;;;;5046191;28;20466;-66
2023/03/15 12:22:52;;;;;;;8.67;4.13;;;16.20;1.00;;;;;;5043862;28;20508;-65
2023/03/15 12:25:25;;;;;;;11.27;5.10;;;16.00;1.00;;;;;;5040451;28;20454;-65
2023/03/15 12:27:55;;;;;;;4.90;1.20;;;15.70;1.00;;;;;;5041410;28;20461;-65
2023/03/15 12:30:30;;;;;;;8.70;2.10;;;15.30;1.00;;;;;;5040169;28;20998;-65
2023/03/15 12:32:58;;;;;;;5.83;1.57;;;15.00;1.00;;;;;;5039057;28;20473;-65
2023/03/15 12:35:31;;;;;;;11.87;7.10;;;14.90;1.00;;;;;;5041721;28;20808;-65
2023/03/15 12:38:00;;;;;;;8.77;3.70;;;14.80;1.00;;;;;;5044460;28;20834;-65
2023/03/15 12:40:48;;;;;;;6.73;3.10;;;14.70;1.00;;;;;;5039075;28;20901;-65
2023/03/15 12:43:15;;;;;;;11.00;6.27;;;14.40;1.00;;;;;;5040779;28;20482;-65
2023/03/15 12:45:47;;;;;;;10.03;4.20;;;14.20;1.00;;;;;;5045089;28;20481;-65
2023/03/15 12:48:28;;;;;;;6.83;3.50;;;14.00;1.00;;;;;;5042622;28;20519;-65
2023/03/15 12:51:00;;;;;;;6.90;3.07;;;13.90;1.00;;;;;;5042204;28;20829;-65
2023/03/15 12:53:47;;;;;;;7.43;4.03;;;13.80;1.00;;;;;;5038596;28;20470;-64
2023/03/15 12:56:44;;;;;;;4.03;1.27;;;13.70;1.00;;;;;;5042140;28;20473;-65
2023/03/15 12:59:31;;;;;;;6.47;1.20;;;13.50;1.00;;;;;;5043866;28;20462;-64
2023/03/15 13:02:02;;;;;;;4.10;1.10;;;13.30;1.00;;;;;;5030419;28;20496;-64
2023/03/15 13:04:34;;;;;;;6.00;1.40;;;13.20;1.00;;;;;;5043386;28;20459;-65
2023/03/15 13:07:31;;;;;;;7.50;3.07;;;13.10;1.00;;;;;;5042601;28;20462;-64
2023/03/15 13:10:39;;;;;;;6.13;2.90;;;13.10;1.00;;;;;;5042784;28;20473;-64
2023/03/15 13:13:43;;;;;;;10.10;6.27;;;13.10;1.00;;;;;;5032176;28;20962;-64